createdAt,value
2019-03-03T00:02:02.549Z,14.80
2019-03-03T00:04:32.847Z,18.97
2019-03-03T00:07:03.068Z,18.60
2019-03-03T00:09:33.310Z,24.03
2019-03-03T00:12:03.513Z,18.93
2019-03-03T00:14:33.688Z,20.37
2019-03-03T00:17:03.971Z,12.33
2019-03-03T00:19:34.152Z,11.63
2019-03-03T00:22:04.300Z,18.33
2019-03-03T00:24:34.638Z,15.20
2019-03-03T00:27:04.838Z,15.40
2019-03-03T00:29:34.955Z,17.93
2019-03-03T00:32:05.362Z,18.07
2019-03-03T00:34:35.656Z,9.40
2019-03-03T00:37:23.861Z,9.93
2019-03-03T00:40:19.375Z,10.97
2019-03-03T00:43:01.679Z,10.77
2019-03-03T00:45:49.001Z,12.90
2019-03-03T00:48:36.732Z,13.07
2019-03-03T00:51:31.940Z,12.47
2019-03-03T00:54:20.182Z,16.00
2019-03-03T00:56:59.807Z,12.23
2019-03-03T01:00:01.381Z,13.43
2019-03-03T01:02:45.222Z,11.20
2019-03-03T01:05:40.530Z,12.63
2019-03-03T01:08:28.057Z,10.53
2019-03-03T01:11:19.986Z,13.87
2019-03-03T01:14:24.415Z,17.23
2019-03-03T01:17:16.852Z,16.00
2019-03-03T01:19:58.030Z,14.00
2019-03-03T01:22:59.176Z,20.27
2019-03-03T01:25:29.337Z,12.90
2019-03-03T01:27:59.495Z,12.80
2019-03-03T01:30:29.737Z,15.50
2019-03-03T01:33:00.004Z,16.73
2019-03-03T01:35:30.154Z,11.43
2019-03-03T01:38:00.431Z,15.83
2019-03-03T01:40:30.647Z,11.80
2019-03-03T01:43:00.858Z,14.43
2019-03-03T01:45:31.088Z,14.60
2019-03-03T01:48:01.333Z,15.00
2019-03-03T01:50:31.549Z,13.17
2019-03-03T01:53:01.830Z,14.10
2019-03-03T01:55:32.040Z,17.27
2019-03-03T01:58:02.297Z,14.53
2019-03-03T02:00:32.761Z,15.67
2019-03-03T02:03:02.892Z,13.37
2019-03-03T02:05:33.144Z,14.93
2019-03-03T02:08:03.751Z,13.60
2019-03-03T02:10:33.910Z,12.40
2019-03-03T02:13:04.105Z,12.63
2019-03-03T02:15:34.330Z,11.53
2019-03-03T02:18:04.686Z,13.73
2019-03-03T02:20:34.984Z,13.27
2019-03-03T02:23:05.326Z,11.87
2019-03-03T02:25:35.731Z,14.87
2019-03-03T02:28:05.980Z,12.10
2019-03-03T02:30:36.273Z,12.57
2019-03-03T02:33:06.479Z,11.57
2019-03-03T02:35:36.664Z,12.30
2019-03-03T02:38:07.024Z,12.53
2019-03-03T02:40:37.230Z,11.60
2019-03-03T02:43:07.402Z,11.67
2019-03-03T02:45:37.684Z,12.03
2019-03-03T02:48:07.824Z,12.90
2019-03-03T02:50:38.045Z,11.50
2019-03-03T02:53:08.364Z,14.27
2019-03-03T02:55:38.581Z,14.23
2019-03-03T02:58:08.762Z,11.43
2019-03-03T03:00:44.047Z,12.73
2019-03-03T03:03:14.160Z,10.67
2019-03-03T03:06:04.565Z,11.77
2019-03-03T03:08:53.724Z,12.23
2019-03-03T03:11:32.138Z,9.60
2019-03-03T03:14:14.443Z,9.57
2019-03-03T03:17:12.620Z,15.67
2019-03-03T03:20:01.785Z,11.57
2019-03-03T03:22:49.728Z,11.73
2019-03-03T03:25:47.799Z,14.07
2019-03-03T03:28:36.861Z,11.10
2019-03-03T03:31:18.759Z,12.00
2019-03-03T03:34:08.021Z,13.40
2019-03-03T03:36:57.185Z,12.83
2019-03-03T03:39:33.332Z,13.13
2019-03-03T03:42:14.513Z,12.63
2019-03-03T03:45:09.218Z,13.60
2019-03-03T03:47:53.253Z,12.77
2019-03-03T03:50:45.503Z,12.00
2019-03-03T03:53:24.840Z,12.70
2019-03-03T03:56:14.002Z,11.67
2019-03-03T03:59:07.058Z,14.17
2019-03-03T04:01:49.157Z,12.93
2019-03-03T04:04:27.864Z,12.57
2019-03-03T04:07:15.204Z,14.77
2019-03-03T04:09:59.450Z,16.73
2019-03-03T04:12:57.526Z,15.00
2019-03-03T04:15:46.586Z,12.27
2019-03-03T04:18:32.685Z,16.37
2019-03-03T04:21:24.920Z,13.53
2019-03-03T04:24:16.848Z,11.77
2019-03-03T04:26:56.488Z,13.83
2019-03-03T04:30:03.780Z,13.87
2019-03-03T04:32:47.517Z,14.37
2019-03-03T04:35:25.316Z,14.57
2019-03-03T04:38:26.563Z,15.10
2019-03-03T04:41:15.627Z,15.23
2019-03-03T04:43:52.677Z,20.97
2019-03-03T04:46:40.650Z,19.57
2019-03-03T04:49:34.215Z,20.50
2019-03-03T04:52:26.042Z,16.43
2019-03-03T04:55:17.870Z,16.23
2019-03-03T04:58:10.210Z,18.37
2019-03-03T05:00:57.848Z,17.60
2019-03-03T05:03:33.793Z,18.90
2019-03-03T05:06:29.103Z,20.77
2019-03-03T05:09:17.141Z,18.90
2019-03-03T05:12:52.020Z,19.97
2019-03-03T05:15:40.324Z,19.07
2019-03-03T05:18:29.477Z,19.97
2019-03-03T05:20:59.751Z,20.00
2019-03-03T05:23:29.854Z,18.63
2019-03-03T05:26:00.098Z,24.10
2019-03-03T05:28:30.256Z,21.07
2019-03-03T05:31:00.455Z,23.57
2019-03-03T05:33:30.642Z,21.83
2019-03-03T05:36:00.865Z,21.23
2019-03-03T05:38:31.137Z,22.63
2019-03-03T05:41:01.353Z,19.07
2019-03-03T05:43:31.690Z,22.57
2019-03-03T05:46:01.964Z,19.03
2019-03-03T05:48:32.143Z,17.50
2019-03-03T05:51:02.401Z,17.87
2019-03-03T05:53:32.623Z,19.07
2019-03-03T05:56:02.857Z,19.70
2019-03-03T05:58:33.130Z,18.87
2019-03-03T06:01:03.313Z,17.50
2019-03-03T06:03:33.597Z,17.73
2019-03-03T06:06:03.977Z,16.80
2019-03-03T06:08:34.098Z,19.57
2019-03-03T06:11:04.443Z,18.23
2019-03-03T06:13:34.754Z,18.47
2019-03-03T06:16:05.605Z,20.13
2019-03-03T06:18:35.919Z,16.87
2019-03-03T06:21:07.938Z,19.90
2019-03-03T06:23:38.088Z,16.87
2019-03-03T06:26:09.033Z,18.17
2019-03-03T06:28:39.382Z,21.83
2019-03-03T06:31:09.530Z,17.80
2019-03-03T06:33:39.830Z,20.17
2019-03-03T06:36:10.134Z,17.07
2019-03-03T06:38:41.657Z,20.23
2019-03-03T06:41:13.958Z,23.87
2019-03-03T06:43:44.222Z,20.43
2019-03-03T06:46:14.438Z,18.17
2019-03-03T06:48:44.578Z,20.17
2019-03-03T06:51:14.780Z,18.27
2019-03-03T06:53:45.006Z,17.87
2019-03-03T06:56:15.198Z,21.53
2019-03-03T06:58:45.379Z,28.50
2019-03-03T07:01:15.566Z,27.60
2019-03-03T07:03:45.778Z,24.63
2019-03-03T07:06:16.345Z,24.80
2019-03-03T07:08:46.473Z,22.97
2019-03-03T07:11:16.690Z,22.57
2019-03-03T07:13:46.873Z,23.33
2019-03-03T07:16:17.039Z,21.13
2019-03-03T07:18:47.321Z,21.57
2019-03-03T07:21:17.522Z,21.27
2019-03-03T07:23:47.891Z,24.30
2019-03-03T07:26:18.074Z,24.73
2019-03-03T07:28:48.246Z,23.27
2019-03-03T07:31:18.510Z,23.53
2019-03-03T07:33:52.903Z,22.97
2019-03-03T07:36:23.144Z,21.80
2019-03-03T07:38:53.378Z,21.63
2019-03-03T07:41:23.537Z,22.70
2019-03-03T07:43:53.724Z,21.77
2019-03-03T07:46:24.030Z,21.57
2019-03-03T07:48:54.181Z,23.27
2019-03-03T07:51:24.030Z,21.50
2019-03-03T07:53:54.304Z,22.43
2019-03-03T07:56:24.413Z,22.20
2019-03-03T07:58:54.594Z,24.93
2019-03-03T08:01:24.750Z,22.93
2019-03-03T08:03:54.974Z,22.97
2019-03-03T08:06:25.366Z,25.70
2019-03-03T08:08:55.429Z,20.90
2019-03-03T08:11:25.708Z,25.27
2019-03-03T08:13:55.809Z,21.70
2019-03-03T08:16:26.089Z,24.20
2019-03-03T08:18:56.353Z,21.87
2019-03-03T08:21:26.474Z,24.73
2019-03-03T08:23:56.977Z,24.60
2019-03-03T08:26:27.217Z,22.63
2019-03-03T08:28:57.353Z,25.10
2019-03-03T08:31:27.560Z,29.03
2019-03-03T08:33:57.906Z,28.97
2019-03-03T08:36:28.250Z,31.60
2019-03-03T08:38:58.477Z,31.57
2019-03-03T08:41:28.762Z,27.20
2019-03-03T08:44:08.509Z,30.07
2019-03-03T08:46:54.697Z,41.97
2019-03-03T08:49:39.681Z,33.07
2019-03-03T08:52:33.230Z,34.80
2019-03-03T08:55:13.709Z,35.97
2019-03-03T08:58:01.745Z,42.83
2019-03-03T09:00:40.571Z,37.53
2019-03-03T09:03:34.548Z,39.27
2019-03-03T09:06:26.888Z,40.73
2019-03-03T09:09:11.021Z,39.27
2019-03-03T09:12:09.110Z,39.90
2019-03-03T09:15:10.664Z,41.37
2019-03-03T09:18:10.568Z,42.13
2019-03-03T09:20:58.622Z,42.23
2019-03-03T09:23:53.520Z,41.23
2019-03-03T09:26:41.661Z,39.33
2019-03-03T09:29:39.839Z,43.43
2019-03-03T09:32:37.486Z,38.57
2019-03-03T09:35:29.845Z,46.57
2019-03-03T09:38:09.576Z,42.77
2019-03-03T09:40:46.423Z,43.87
2019-03-03T09:43:41.364Z,40.73
2019-03-03T09:46:29.299Z,42.50
2019-03-03T09:49:27.374Z,44.77
2019-03-03T09:52:14.698Z,52.87
2019-03-03T09:54:52.343Z,55.87
2019-03-03T09:57:53.435Z,47.77
2019-03-03T10:00:44.586Z,48.77
2019-03-03T10:03:53.578Z,54.13
2019-03-03T10:06:43.567Z,50.30
2019-03-03T10:09:50.265Z,49.93
2019-03-03T10:12:31.112Z,58.73
2019-03-03T10:15:21.527Z,62.17
2019-03-03T10:18:10.773Z,61.93
2019-03-03T10:20:57.683Z,59.80
2019-03-03T10:23:46.746Z,61.10
2019-03-03T10:26:24.954Z,53.17
2019-03-03T10:29:09.822Z,58.90
2019-03-03T10:32:01.954Z,62.27
2019-03-03T10:34:51.015Z,62.03
2019-03-03T10:37:38.439Z,67.17
2019-03-03T10:40:28.320Z,67.23
2019-03-03T10:43:06.121Z,56.87
2019-03-03T10:45:52.959Z,57.33
2019-03-03T10:48:41.992Z,62.60
2019-03-03T10:51:29.928Z,68.27
2019-03-03T10:54:18.071Z,76.37
2019-03-03T10:57:10.410Z,66.10
2019-03-03T10:59:54.960Z,59.97
2019-03-03T11:02:51.815Z,60.90
2019-03-03T11:05:50.192Z,65.33
2019-03-03T11:08:42.429Z,62.17
2019-03-03T11:11:31.597Z,68.50
2019-03-03T11:14:20.763Z,60.67
2019-03-03T11:17:03.577Z,58.67
2019-03-03T11:20:01.655Z,58.37
2019-03-03T11:22:45.887Z,58.83
2019-03-03T11:25:34.248Z,55.77
2019-03-03T11:28:26.382Z,53.93
2019-03-03T11:31:06.543Z,61.30
2019-03-03T11:33:54.472Z,62.90
2019-03-03T11:36:35.975Z,51.90
2019-03-03T11:39:35.569Z,47.90
2019-03-03T11:42:24.019Z,36.70
2019-03-03T11:45:19.837Z,48.57
2019-03-03T11:48:07.757Z,47.87
2019-03-03T11:51:15.277Z,44.90
2019-03-03T11:53:51.736Z,50.20
2019-03-03T11:56:39.572Z,48.40
2019-03-03T11:59:27.508Z,41.93
2019-03-03T12:02:15.137Z,42.17
2019-03-03T12:05:07.169Z,41.40
2019-03-03T12:07:44.599Z,43.37
2019-03-03T12:10:40.072Z,44.13
2019-03-03T12:13:47.362Z,45.78
2019-03-03T12:16:36.627Z,45.92
2019-03-03T12:19:21.906Z,43.35
2019-03-03T12:22:02.058Z,47.70
2019-03-03T12:24:40.368Z,49.88
2019-03-03T12:27:28.917Z,49.50
2019-03-03T12:30:20.439Z,50.63
2019-03-03T12:33:18.614Z,51.65
2019-03-03T12:36:06.963Z,51.88
2019-03-03T12:38:51.825Z,51.83
2019-03-03T12:41:40.992Z,51.83
2019-03-03T12:44:30.159Z,50.65
2019-03-03T12:47:28.232Z,52.35
2019-03-03T12:50:29.785Z,53.52
2019-03-03T12:53:37.278Z,48.30
2019-03-03T12:56:24.586Z,52.27
2019-03-03T12:59:05.769Z,50.25
2019-03-03T13:01:57.914Z,49.88
2019-03-03T13:04:47.080Z,47.23
2019-03-03T13:07:45.860Z,48.10
2019-03-03T13:10:53.570Z,44.20
2019-03-03T13:13:42.838Z,46.15
2019-03-03T13:16:30.693Z,43.17
2019-03-03T13:19:20.147Z,41.68
2019-03-03T13:22:13.918Z,41.10
2019-03-03T13:25:09.534Z,40.40
2019-03-03T13:27:50.490Z,38.33
2019-03-03T13:30:55.441Z,42.38
2019-03-03T13:33:54.473Z,38.78
2019-03-03T13:36:49.848Z,34.27
2019-03-03T13:39:38.090Z,35.00
2019-03-03T13:42:26.130Z,36.03
2019-03-03T13:44:57.669Z,34.48
2019-03-03T13:47:28.625Z,41.68
2019-03-03T13:50:01.814Z,44.95
2019-03-03T13:52:32.466Z,42.55
2019-03-03T13:55:03.252Z,40.88
2019-03-03T13:57:35.115Z,38.90
2019-03-03T14:00:09.340Z,47.55
2019-03-03T14:02:42.373Z,45.12
2019-03-03T14:05:13.376Z,44.03
2019-03-03T14:07:44.047Z,41.65
2019-03-03T14:10:15.439Z,47.20
2019-03-03T14:12:46.097Z,45.73
2019-03-03T14:15:18.524Z,41.98
2019-03-03T14:17:50.328Z,38.15
2019-03-03T14:20:21.920Z,37.03
2019-03-03T14:22:53.680Z,40.05
2019-03-03T14:25:23.917Z,37.08
2019-03-03T14:27:54.198Z,38.50
2019-03-03T14:30:25.627Z,31.97
2019-03-03T14:32:56.047Z,28.87
2019-03-03T14:35:26.268Z,31.68
2019-03-03T14:37:57.110Z,28.75
2019-03-03T14:40:27.428Z,29.35
2019-03-03T14:42:57.706Z,27.75
2019-03-03T14:45:28.175Z,30.95
2019-03-03T14:47:58.426Z,28.90
2019-03-03T14:50:28.716Z,26.80
2019-03-03T14:52:59.217Z,26.75
2019-03-03T14:55:29.399Z,27.48
2019-03-03T14:57:59.716Z,25.25
2019-03-03T15:00:31.986Z,26.60
2019-03-03T15:03:03.643Z,26.12
2019-03-03T15:05:34.581Z,27.32
2019-03-03T15:08:04.767Z,25.30
2019-03-03T15:10:35.055Z,24.47
2019-03-03T15:13:05.370Z,25.92
2019-03-03T15:15:35.996Z,25.57
2019-03-03T15:18:06.366Z,25.95
2019-03-03T15:20:36.922Z,36.53
2019-03-03T15:23:07.118Z,35.92
2019-03-03T15:25:37.390Z,36.48
2019-03-03T15:28:07.607Z,37.30
2019-03-03T15:30:37.862Z,36.25
2019-03-03T15:33:08.112Z,36.63
2019-03-03T15:35:38.428Z,34.37
2019-03-03T15:38:08.926Z,32.60
2019-03-03T15:40:39.337Z,41.73
2019-03-03T15:43:09.565Z,88.70
2019-03-03T15:45:41.156Z,150.50
2019-03-03T15:48:11.419Z,43.23
2019-03-03T15:50:41.811Z,39.18
2019-03-03T15:53:12.040Z,47.08
2019-03-03T15:55:42.354Z,91.22
2019-03-03T15:58:14.261Z,45.80
2019-03-03T16:00:45.809Z,37.25
2019-03-03T16:03:16.977Z,35.15
2019-03-03T16:05:48.091Z,31.70
2019-03-03T16:08:19.014Z,32.17
2019-03-03T16:10:53.344Z,40.33
2019-03-03T16:13:26.478Z,33.92
2019-03-03T16:15:58.362Z,33.00
2019-03-03T16:18:29.787Z,35.78
2019-03-03T16:21:01.407Z,37.23
2019-03-03T16:23:32.757Z,38.48
2019-03-03T16:26:04.404Z,37.00
2019-03-03T16:28:35.720Z,56.77
2019-03-03T16:31:07.497Z,67.27
2019-03-03T16:33:41.492Z,63.17
2019-03-03T16:36:13.322Z,77.10
2019-03-03T16:38:44.853Z,100.83
2019-03-03T16:41:16.320Z,62.90
2019-03-03T16:43:47.762Z,52.97
2019-03-03T16:46:19.475Z,47.40
2019-03-03T16:48:51.710Z,46.23
2019-03-03T16:51:23.617Z,44.67
2019-03-03T16:53:56.413Z,36.90
2019-03-03T16:56:28.974Z,38.93
2019-03-03T16:59:00.857Z,40.87
2019-03-03T17:01:32.205Z,48.27
2019-03-03T17:04:05.143Z,41.70
2019-03-03T17:06:36.942Z,43.50
2019-03-03T17:09:09.539Z,45.50
2019-03-03T17:11:41.639Z,48.37
2019-03-03T17:14:13.707Z,55.43
2019-03-03T17:16:50.466Z,71.43
2019-03-03T17:19:23.418Z,49.40
2019-03-03T17:21:55.470Z,43.20
2019-03-03T17:24:28.273Z,49.03
2019-03-03T17:27:02.491Z,115.30
2019-03-03T17:29:34.013Z,369.97
2019-03-03T17:32:08.561Z,184.20
2019-03-03T17:34:40.161Z,97.77
2019-03-03T17:37:11.763Z,557.87
2019-03-03T17:39:44.586Z,1530.43
2019-03-03T17:42:16.341Z,1029.33
2019-03-03T17:44:47.875Z,157.50
2019-03-03T17:47:19.419Z,78.00
2019-03-03T17:49:51.140Z,47.70
2019-03-03T17:52:23.508Z,39.30
2019-03-03T17:54:54.717Z,41.23
2019-03-03T17:57:26.292Z,37.57
2019-03-03T17:59:57.706Z,37.20
2019-03-03T18:02:29.334Z,38.87
2019-03-03T18:05:01.098Z,33.93
2019-03-03T18:07:32.461Z,35.27
2019-03-03T18:10:05.227Z,36.03
2019-03-03T18:12:36.681Z,33.87
2019-03-03T18:15:08.528Z,41.00
2019-03-03T18:17:39.524Z,40.37
2019-03-03T18:20:12.490Z,47.27
2019-03-03T18:22:44.531Z,37.37
2019-03-03T18:25:16.994Z,42.70
2019-03-03T18:27:48.759Z,38.23
2019-03-03T18:30:21.099Z,41.20
2019-03-03T18:32:52.591Z,44.87
2019-03-03T18:35:24.197Z,215.80
2019-03-03T18:37:57.777Z,241.83
2019-03-03T18:40:32.582Z,184.50
2019-03-03T18:43:04.867Z,378.77
2019-03-03T18:45:35.736Z,280.60
2019-03-03T18:48:06.718Z,342.40
2019-03-03T18:50:37.403Z,223.90
2019-03-03T18:53:07.964Z,187.67
2019-03-03T18:55:38.414Z,86.57
2019-03-03T18:58:08.829Z,55.47
2019-03-03T19:00:45.669Z,63.33
2019-03-03T19:03:21.703Z,42.73
2019-03-03T19:05:55.997Z,37.53
2019-03-03T19:08:41.328Z,35.87
2019-03-03T19:11:15.895Z,37.97
2019-03-03T19:13:47.622Z,45.07
2019-03-03T19:16:19.995Z,39.50
2019-03-03T19:18:51.788Z,48.93
2019-03-03T19:21:22.248Z,48.20
2019-03-03T19:23:53.169Z,36.10
2019-03-03T19:26:23.655Z,36.33
2019-03-03T19:28:57.275Z,45.00
2019-03-03T19:31:29.464Z,53.00
2019-03-03T19:34:00.938Z,53.70
2019-03-03T19:36:33.710Z,59.47
2019-03-03T19:39:05.930Z,55.50
2019-03-03T19:41:36.648Z,53.83
2019-03-03T19:44:07.869Z,56.03
2019-03-03T19:46:40.596Z,51.00
2019-03-03T19:49:11.965Z,53.60
2019-03-03T19:51:43.301Z,50.00
2019-03-03T19:54:13.973Z,53.70
2019-03-03T19:56:47.313Z,47.63
2019-03-03T19:59:18.232Z,48.23
2019-03-03T20:01:49.425Z,51.30
2019-03-03T20:04:20.549Z,49.17
2019-03-03T20:06:52.073Z,49.50
2019-03-03T20:09:23.310Z,89.30
2019-03-03T20:11:54.012Z,71.10
2019-03-03T20:14:24.668Z,102.17
2019-03-03T20:16:56.110Z,52.60
2019-03-03T20:19:26.331Z,39.30
2019-03-03T20:21:56.853Z,60.83
2019-03-03T20:24:27.049Z,50.90
2019-03-03T20:26:57.425Z,47.83
2019-03-03T20:29:27.694Z,42.10
2019-03-03T20:31:57.869Z,35.20
2019-03-03T20:34:28.123Z,27.27
2019-03-03T20:36:58.512Z,28.90
2019-03-03T20:39:28.900Z,22.07
2019-03-03T20:41:59.063Z,18.97
2019-03-03T20:44:29.375Z,19.60
2019-03-03T20:46:59.653Z,26.63
2019-03-03T20:49:30.139Z,19.90
2019-03-03T20:52:03.019Z,24.10
2019-03-03T20:54:33.399Z,22.73
2019-03-03T20:57:03.569Z,18.40
2019-03-03T20:59:33.943Z,16.73
2019-03-03T21:02:04.617Z,16.93
2019-03-03T21:04:34.840Z,16.87
2019-03-03T21:07:05.251Z,18.47
2019-03-03T21:09:35.521Z,16.87
2019-03-03T21:12:05.686Z,17.27
2019-03-03T21:14:36.028Z,16.10
2019-03-03T21:17:06.292Z,20.27
2019-03-03T21:19:36.574Z,15.90
2019-03-03T21:22:06.849Z,15.03
2019-03-03T21:24:37.063Z,11.53
2019-03-03T21:27:07.266Z,12.73
2019-03-03T21:29:37.509Z,13.43
2019-03-03T21:32:07.680Z,14.10
2019-03-03T21:34:37.719Z,16.73
2019-03-03T21:37:07.950Z,13.23
2019-03-03T21:39:38.137Z,16.20
2019-03-03T21:42:08.402Z,13.60
2019-03-03T21:44:38.622Z,13.13
2019-03-03T21:47:08.783Z,16.57
2019-03-03T21:49:38.946Z,10.73
2019-03-03T21:52:09.185Z,17.30
2019-03-03T21:54:39.392Z,16.20
2019-03-03T21:57:09.510Z,10.90
2019-03-03T21:59:39.810Z,16.27
2019-03-03T22:02:09.891Z,10.97
2019-03-03T22:04:40.186Z,14.63
2019-03-03T22:07:10.465Z,11.87
2019-03-03T22:09:40.689Z,15.80
2019-03-03T22:12:10.771Z,10.97
2019-03-03T22:14:41.102Z,11.67
2019-03-03T22:17:11.224Z,13.57
2019-03-03T22:19:41.345Z,16.93
2019-03-03T22:22:11.675Z,12.67
2019-03-03T22:24:41.838Z,12.33
2019-03-03T22:27:12.808Z,14.10
2019-03-03T22:29:43.205Z,14.70
2019-03-03T22:32:13.373Z,13.30
2019-03-03T22:34:43.534Z,14.27
2019-03-03T22:37:13.817Z,12.37
2019-03-03T22:39:43.939Z,11.77
2019-03-03T22:42:14.102Z,16.77
2019-03-03T22:44:44.381Z,15.50
2019-03-03T22:47:14.512Z,12.40
2019-03-03T22:49:44.679Z,14.77
2019-03-03T22:52:14.926Z,18.03
2019-03-03T22:54:45.077Z,13.83
2019-03-03T22:57:15.271Z,15.03
2019-03-03T22:59:45.496Z,13.17
2019-03-03T23:02:16.869Z,16.73
2019-03-03T23:05:20.559Z,11.60
2019-03-03T23:08:13.937Z,13.77
2019-03-03T23:11:40.273Z,13.13
2019-03-03T23:14:33.579Z,13.20
2019-03-03T23:17:56.904Z,11.20
2019-03-03T23:20:36.573Z,14.23
2019-03-03T23:24:00.001Z,14.23
2019-03-03T23:26:30.274Z,15.63
2019-03-03T23:29:00.433Z,16.37
2019-03-03T23:31:30.617Z,13.43
2019-03-03T23:34:00.830Z,11.73
2019-03-03T23:36:31.060Z,12.67
2019-03-03T23:39:01.127Z,13.40
2019-03-03T23:41:31.387Z,13.23
2019-03-03T23:44:01.499Z,13.80
2019-03-03T23:46:31.718Z,16.20
2019-03-03T23:49:01.916Z,14.07
2019-03-03T23:51:32.073Z,12.93
2019-03-03T23:54:02.465Z,12.23
2019-03-03T23:56:32.539Z,11.30
2019-03-03T23:59:02.723Z,9.77
